Terminal Aerodrome Forecast
Issued by NWS Louisville, KY

Home | Current Version | Previous Version | Text Only | Print | Product List | Glossary On
Versions: 1 2 3 4 5 6 7 8 9 10 11 12 13 14
000
FTUS43 KLMK 211100
TAFBWG
TAF
KBWG 211130Z 2112/2212 34006KT 5SM BR BKN006
     FM211500 32008KT P6SM OVC015
     FM211700 33008KT P6SM BKN025
     FM211900 32008KT P6SM SCT035
     FM220000 VRB03KT P6SM FEW035
     FM220900 00000KT 5SM BR FEW250=

USA.gov is the U.S. government's official web portal to all federal, state and local government web resources and services.